Time;durP1;ratioP1;P1;durP2;ratioP2;P2;SDS_P1;SDS_P2;PMS_P1;PMS_P2;Temp;Humidity;BMP_temperature;BMP_pressure;BME280_temperature;BME280_humidity;BME280_pressure;Samples;Min_cycle;Max_cycle;Signal;HPM_P1;HPM_P2
2022/08/01 00:02:09;;;;;;;8.37;4.80;;;22.80;1.00;;;;;;6289048;22;20397;-80
2022/08/01 00:04:36;;;;;;;7.47;4.50;;;22.70;1.00;;;;;;6286913;22;20498;-80
2022/08/01 00:07:11;;;;;;;8.50;5.07;;;22.80;1.00;;;;;;6291752;22;20446;-80
2022/08/01 00:09:38;;;;;;;9.37;5.00;;;22.80;1.00;;;;;;6286012;22;20402;-78
2022/08/01 00:12:09;;;;;;;10.47;5.70;;;22.80;1.00;;;;;;6289496;22;20546;-79
2022/08/01 00:14:36;;;;;;;8.30;5.50;;;22.70;1.00;;;;;;6287374;22;20443;-78
2022/08/01 00:17:31;;;;;;;7.80;5.27;;;22.70;1.00;;;;;;6287348;22;20514;-80
2022/08/01 00:20:00;;;;;;;8.83;5.27;;;22.70;1.00;;;;;;6286776;22;20438;-80
2022/08/01 00:22:31;;;;;;;9.43;5.43;;;22.70;1.00;;;;;;6286256;22;20402;-79
2022/08/01 00:24:58;;;;;;;8.40;5.20;;;22.60;1.00;;;;;;6287373;22;20831;-79
2022/08/01 00:27:28;;;;;;;10.10;5.97;;;22.50;1.00;;;;;;6286315;22;20401;-79
2022/08/01 00:29:55;;;;;;;9.13;5.13;;;22.50;1.00;;;;;;6287836;22;20422;-79
2022/08/01 00:32:22;;;;;;;7.40;4.87;;;22.50;1.00;;;;;;6282616;22;20415;-79
2022/08/01 00:34:50;;;;;;;10.40;6.07;;;22.40;1.00;;;;;;6285777;22;20418;-79
2022/08/01 00:37:17;;;;;;;9.37;5.63;;;22.40;1.00;;;;;;6285431;22;20423;-79
2022/08/01 00:39:49;;;;;;;9.40;5.53;;;22.40;1.00;;;;;;6286342;22;20421;-78
2022/08/01 00:42:16;;;;;;;10.90;6.20;;;22.30;1.00;;;;;;6283354;22;20421;-79
2022/08/01 00:44:47;;;;;;;8.23;5.20;;;22.30;1.00;;;;;;6287612;22;20423;-79
2022/08/01 00:47:14;;;;;;;8.00;5.60;;;22.30;1.00;;;;;;6286093;22;20431;-79
2022/08/01 00:49:41;;;;;;;9.57;5.80;;;22.20;1.00;;;;;;6285663;22;20927;-79
2022/08/01 00:52:11;;;;;;;9.30;5.27;;;22.20;1.00;;;;;;6293365;22;21305;-79
2022/08/01 00:54:38;;;;;;;8.50;5.57;;;22.20;1.00;;;;;;6285860;22;20437;-79
2022/08/01 00:57:10;;;;;;;8.60;5.70;;;22.10;1.00;;;;;;6285375;22;20411;-79
2022/08/01 00:59:37;;;;;;;8.67;5.50;;;22.10;1.00;;;;;;6288542;22;20415;-79
2022/08/01 01:02:15;;;;;;;8.83;5.83;;;22.10;1.00;;;;;;6285960;22;20601;-79
2022/08/01 01:04:49;;;;;;;9.43;5.70;;;22.20;1.00;;;;;;6286861;22;20429;-80
2022/08/01 01:07:29;;;;;;;8.03;5.90;;;22.10;1.00;;;;;;6288210;22;20427;-80
2022/08/01 01:10:02;;;;;;;8.60;5.40;;;22.10;1.00;;;;;;6288946;22;20938;-79
2022/08/01 01:12:35;;;;;;;10.47;6.00;;;22.10;1.00;;;;;;6287296;22;20750;-79
2022/08/01 01:15:09;;;;;;;9.67;5.63;;;22.10;1.00;;;;;;6286665;22;20917;-80
2022/08/01 01:17:41;;;;;;;7.87;5.37;;;22.00;1.00;;;;;;6286128;22;20837;-79
2022/08/01 01:20:13;;;;;;;8.30;5.90;;;22.10;1.00;;;;;;6285610;22;20435;-79
2022/08/01 01:22:58;;;;;;;9.90;6.17;;;22.10;1.00;;;;;;6288004;22;20431;-79
2022/08/01 01:25:51;;;;;;;10.60;6.60;;;22.00;1.00;;;;;;6287284;22;20379;-79
2022/08/01 01:28:29;;;;;;;7.40;5.53;;;22.00;1.00;;;;;;6285430;22;20521;-79
2022/08/01 01:30:59;;;;;;;9.73;6.27;;;21.90;1.00;;;;;;6287824;22;20473;-79
2022/08/01 01:33:32;;;;;;;7.70;5.40;;;21.90;1.00;;;;;;6287849;22;20538;-79
2022/08/01 01:36:08;;;;;;;9.07;6.23;;;21.90;1.00;;;;;;6287555;22;20415;-79
2022/08/01 01:38:41;;;;;;;8.67;6.10;;;21.90;1.00;;;;;;6283236;22;20517;-80
2022/08/01 01:41:11;;;;;;;7.70;5.33;;;21.90;1.00;;;;;;6283266;22;20371;-79
2022/08/01 01:43:40;;;;;;;8.13;6.00;;;21.90;1.00;;;;;;6285979;22;20401;-79
2022/08/01 01:46:13;;;;;;;8.00;5.33;;;21.80;1.00;;;;;;6287545;22;20391;-77
2022/08/01 01:48:48;;;;;;;9.70;6.33;;;21.80;1.00;;;;;;6286331;22;20569;-80
2022/08/01 01:51:33;;;;;;;8.60;5.80;;;21.90;1.00;;;;;;6288030;22;20429;-79
2022/08/01 01:54:01;;;;;;;8.77;5.50;;;21.90;1.00;;;;;;6287357;22;20983;-80
2022/08/01 01:56:30;;;;;;;8.27;5.50;;;21.80;1.00;;;;;;6284850;22;20383;-79
2022/08/01 01:59:01;;;;;;;8.20;5.73;;;21.80;1.00;;;;;;6289492;22;20427;-79
2022/08/01 02:01:34;;;;;;;9.70;5.50;;;21.80;1.00;;;;;;6288914;22;20422;-79
2022/08/01 02:04:04;;;;;;;8.00;5.73;;;21.80;1.00;;;;;;6289937;22;21054;-79
2022/08/01 02:06:32;;;;;;;8.50;5.90;;;21.80;1.00;;;;;;6287183;22;20412;-79
2022/08/01 02:09:01;;;;;;;8.37;5.93;;;21.90;1.00;;;;;;6288166;22;20467;-79
2022/08/01 02:11:29;;;;;;;7.73;5.53;;;21.80;1.00;;;;;;6288788;22;20434;-79
2022/08/01 02:13:59;;;;;;;8.70;6.30;;;21.80;1.00;;;;;;6289529;22;20800;-79
2022/08/01 02:16:35;;;;;;;9.63;5.77;;;21.70;1.00;;;;;;6288803;22;20395;-79
2022/08/01 02:19:02;;;;;;;7.47;5.10;;;21.60;1.00;;;;;;6290731;22;20458;-79
2022/08/01 02:21:39;;;;;;;10.33;6.10;;;21.70;1.00;;;;;;6287324;22;20399;-79
2022/08/01 02:24:15;;;;;;;8.50;5.80;;;21.60;1.00;;;;;;6290304;22;20454;-79
2022/08/01 02:26:49;;;;;;;9.50;6.30;;;21.60;1.00;;;;;;6286729;22;20501;-80
2022/08/01 02:29:20;;;;;;;10.60;6.90;;;21.50;1.00;;;;;;6286246;22;20434;-80
2022/08/01 02:31:54;;;;;;;8.00;6.03;;;21.30;1.00;;;;;;6288279;22;20415;-79
2022/08/01 02:34:26;;;;;;;9.10;6.10;;;21.20;1.00;;;;;;6287035;22;20772;-79
2022/08/01 02:36:55;;;;;;;10.13;6.20;;;21.10;1.00;;;;;;6287108;22;20415;-80
2022/08/01 02:39:29;;;;;;;9.33;5.90;;;21.10;1.00;;;;;;6285978;22;21240;-80
2022/08/01 02:42:01;;;;;;;11.70;6.63;;;21.00;1.00;;;;;;6288177;22;20482;-80
2022/08/01 02:44:33;;;;;;;9.87;6.70;;;20.90;1.00;;;;;;6287568;22;20419;-80
2022/08/01 02:47:21;;;;;;;9.30;6.20;;;20.90;1.00;;;;;;6298551;22;20502;-79
2022/08/01 02:53:36;;;;;;;12.00;7.13;;;20.80;1.00;;;;;;6299937;22;21249;-80
2022/08/01 02:59:17;;;;;;;11.53;6.77;;;20.90;1.00;;;;;;6262439;22;20415;-80
2022/08/01 03:01:50;;;;;;;8.90;6.50;;;20.90;1.00;;;;;;6288273;22;20427;-80
2022/08/01 03:08:36;;;;;;;9.83;6.37;;;20.90;1.00;;;;;;6223927;22;20396;-80
2022/08/01 03:11:11;;;;;;;9.40;6.30;;;21.00;1.00;;;;;;6279833;22;20762;-81
2022/08/01 03:13:39;;;;;;;9.10;6.60;;;21.00;1.00;;;;;;6288149;22;20430;-81
2022/08/01 03:16:11;;;;;;;9.97;6.87;;;21.10;1.00;;;;;;6289069;22;20371;-80
2022/08/01 03:18:39;;;;;;;10.07;6.40;;;21.00;1.00;;;;;;6288761;22;20721;-80
2022/08/01 03:21:11;;;;;;;10.33;7.07;;;21.00;1.00;;;;;;6291096;22;20442;-80
2022/08/01 03:23:41;;;;;;;9.23;6.97;;;21.00;1.00;;;;;;6287228;22;20419;-80
2022/08/01 03:26:10;;;;;;;9.43;6.83;;;20.90;1.00;;;;;;6289256;22;20375;-78
2022/08/01 03:28:39;;;;;;;10.80;6.60;;;20.90;1.00;;;;;;6286977;22;20538;-79
2022/08/01 03:31:13;;;;;;;10.00;6.60;;;20.90;1.00;;;;;;6288049;22;20390;-79
2022/08/01 03:33:41;;;;;;;10.87;6.90;;;20.80;1.00;;;;;;6287337;22;20445;-79
2022/08/01 03:36:13;;;;;;;9.57;6.73;;;20.80;1.00;;;;;;6286601;22;20391;-80
2022/08/01 03:38:48;;;;;;;10.10;7.03;;;20.80;1.00;;;;;;6283940;22;20950;-80
2022/08/01 03:41:21;;;;;;;11.10;7.13;;;20.80;1.00;;;;;;6286035;22;20543;-79
2022/08/01 03:43:58;;;;;;;11.23;6.83;;;20.90;1.00;;;;;;6287408;22;20433;-80
2022/08/01 03:46:33;;;;;;;11.30;7.10;;;20.90;1.00;;;;;;6284884;22;20402;-80
2022/08/01 03:49:09;;;;;;;9.00;6.60;;;20.90;1.00;;;;;;6286985;22;21212;-80
2022/08/01 03:51:39;;;;;;;11.63;7.00;;;20.90;1.00;;;;;;6269411;22;20991;-80
2022/08/01 03:54:22;;;;;;;11.80;7.73;;;21.00;1.00;;;;;;6283614;22;20542;-80
2022/08/01 03:56:50;;;;;;;10.10;5.97;;;21.00;1.00;;;;;;6285638;22;20403;-80
2022/08/01 03:59:20;;;;;;;11.73;6.87;;;21.00;1.00;;;;;;6286767;22;20422;-80
2022/08/01 04:01:48;;;;;;;10.00;6.50;;;21.10;1.00;;;;;;6286904;22;20542;-80
2022/08/01 04:04:21;;;;;;;13.07;6.40;;;21.00;1.00;;;;;;6284536;22;20399;-79
2022/08/01 04:09:33;;;;;;;12.50;7.00;;;21.00;1.00;;;;;;6285225;22;20474;-80
2022/08/01 04:12:08;;;;;;;10.47;6.77;;;21.00;1.00;;;;;;6284226;22;21049;-81
2022/08/01 04:14:35;;;;;;;10.43;6.50;;;21.00;1.00;;;;;;6287673;22;20771;-80
2022/08/01 04:17:02;;;;;;;11.53;7.20;;;21.00;1.00;;;;;;6286592;22;20772;-81
2022/08/01 04:19:30;;;;;;;9.53;6.30;;;21.00;1.00;;;;;;6274464;22;20387;-79
2022/08/01 04:21:57;;;;;;;10.83;6.53;;;21.10;1.00;;;;;;6287922;22;20950;-80
2022/08/01 04:24:30;;;;;;;11.53;8.37;;;21.10;1.00;;;;;;6284798;22;20462;-80
2022/08/01 04:27:01;;;;;;;13.07;7.00;;;21.20;1.00;;;;;;6262429;22;20423;-80
2022/08/01 04:29:30;;;;;;;13.33;8.40;;;21.20;1.00;;;;;;6287571;22;20385;-80
2022/08/01 04:32:00;;;;;;;11.70;7.50;;;21.20;1.00;;;;;;6286818;22;20925;-80
2022/08/01 04:34:32;;;;;;;12.20;7.33;;;21.30;1.00;;;;;;6284423;22;20427;-80
2022/08/01 04:37:01;;;;;;;14.17;7.97;;;21.30;1.00;;;;;;6286046;22;20411;-81
2022/08/01 04:39:33;;;;;;;15.40;9.20;;;21.40;1.00;;;;;;6286094;22;20386;-80
2022/08/01 04:42:03;;;;;;;13.93;9.50;;;21.40;1.00;;;;;;6285073;22;20451;-80
2022/08/01 04:44:34;;;;;;;14.97;10.27;;;21.40;1.00;;;;;;6285782;22;20419;-81
2022/08/01 04:47:03;;;;;;;13.77;9.77;;;21.40;1.00;;;;;;6283840;22;21861;-80
2022/08/01 04:49:33;;;;;;;14.70;10.40;;;21.50;1.00;;;;;;6318466;22;20390;-79
2022/08/01 04:52:00;;;;;;;12.77;10.13;;;21.50;1.00;;;;;;6316409;22;20457;-80
2022/08/01 04:54:33;;;;;;;14.20;10.33;;;21.60;1.00;;;;;;6317125;22;20432;-80
2022/08/01 04:57:01;;;;;;;13.17;9.50;;;21.60;1.00;;;;;;6319809;22;20424;-79
2022/08/01 04:59:43;;;;;;;20.13;14.07;;;21.70;1.00;;;;;;6317587;22;20379;-79
2022/08/01 05:02:12;;;;;;;14.10;9.50;;;21.70;1.00;;;;;;6314119;22;20962;-80
2022/08/01 05:04:43;;;;;;;15.27;9.93;;;21.60;1.00;;;;;;6316318;22;20390;-80
2022/08/01 05:07:41;;;;;;;13.37;9.60;;;21.50;1.00;;;;;;6317818;22;20414;-79
2022/08/01 05:10:08;;;;;;;15.20;9.97;;;21.50;1.00;;;;;;6320217;22;20370;-79
2022/08/01 05:12:40;;;;;;;15.50;11.40;;;21.40;1.00;;;;;;6313371;22;20787;-79
2022/08/01 05:15:08;;;;;;;14.37;11.50;;;21.50;1.00;;;;;;6316795;22;20465;-79
2022/08/01 05:17:41;;;;;;;17.73;11.43;;;21.50;1.00;;;;;;6317584;22;20411;-80
2022/08/01 05:20:10;;;;;;;13.70;10.07;;;21.40;1.00;;;;;;6319122;22;20453;-79
2022/08/01 05:22:40;;;;;;;14.63;11.60;;;21.50;1.00;;;;;;6317617;22;20394;-78
2022/08/01 05:25:08;;;;;;;16.50;11.97;;;21.40;1.00;;;;;;6315586;22;21179;-78
2022/08/01 05:27:40;;;;;;;15.87;11.80;;;21.50;1.00;;;;;;6317206;22;20422;-80
2022/08/01 05:30:09;;;;;;;16.30;11.50;;;21.40;1.00;;;;;;6316044;22;20386;-80
2022/08/01 05:32:44;;;;;;;15.90;12.83;;;21.40;1.00;;;;;;6304225;22;20382;-76
2022/08/01 05:35:11;;;;;;;16.27;13.03;;;21.40;1.00;;;;;;6317957;22;20453;-78
2022/08/01 05:37:43;;;;;;;16.23;12.67;;;21.40;1.00;;;;;;6317871;22;20405;-78
2022/08/01 05:40:10;;;;;;;17.33;12.13;;;21.30;1.00;;;;;;6317354;22;20457;-78
2022/08/01 05:42:42;;;;;;;14.77;11.60;;;21.30;1.00;;;;;;6316438;22;20736;-80
2022/08/01 05:45:11;;;;;;;16.00;13.13;;;21.30;1.00;;;;;;6317950;22;20444;-79
2022/08/01 05:47:40;;;;;;;18.00;13.20;;;21.30;1.00;;;;;;6275583;22;20850;-80
2022/08/01 05:50:10;;;;;;;16.23;12.43;;;21.40;1.00;;;;;;6319170;22;20438;-82
2022/08/01 05:52:37;;;;;;;18.60;12.00;;;21.40;1.00;;;;;;6320095;22;20453;-78
2022/08/01 05:55:09;;;;;;;16.47;11.27;;;21.50;1.00;;;;;;6319476;22;20430;-80
2022/08/01 05:57:41;;;;;;;17.57;11.47;;;21.50;1.00;;;;;;6317391;22;20402;-81
2022/08/01 06:00:10;;;;;;;13.30;9.63;;;21.60;1.00;;;;;;6317360;22;20450;-78
2022/08/01 06:02:43;;;;;;;16.37;12.57;;;21.60;1.00;;;;;;6317008;22;20378;-78
2022/08/01 06:05:10;;;;;;;13.47;9.50;;;21.70;1.00;;;;;;6318140;22;20474;-81
2022/08/01 06:07:41;;;;;;;12.50;9.10;;;21.80;1.00;;;;;;6313587;22;20387;-80
2022/08/01 06:10:09;;;;;;;18.50;9.90;;;21.80;1.00;;;;;;6316138;22;20446;-80
2022/08/01 06:12:42;;;;;;;12.80;9.47;;;21.90;1.00;;;;;;6317759;22;20430;-79
2022/08/01 06:15:09;;;;;;;12.93;8.80;;;21.90;1.00;;;;;;6318910;22;20425;-80
2022/08/01 06:17:45;;;;;;;13.07;8.70;;;21.90;1.00;;;;;;6316896;22;20389;-80
2022/08/01 06:20:12;;;;;;;12.27;8.47;;;22.00;1.00;;;;;;6319304;22;20420;-81
2022/08/01 06:22:40;;;;;;;10.70;6.47;;;22.10;1.00;;;;;;6320362;22;20446;-78
2022/08/01 06:25:09;;;;;;;11.10;7.40;;;22.10;1.00;;;;;;6304376;22;20437;-80
2022/08/01 06:27:47;;;;;;;10.77;7.03;;;22.10;1.00;;;;;;6315694;22;20409;-80
2022/08/01 06:30:18;;;;;;;10.17;6.50;;;22.10;1.00;;;;;;6316989;22;20802;-81
2022/08/01 06:33:08;;;;;;;16.37;7.90;;;22.10;1.00;;;;;;6317692;22;20418;-77
2022/08/01 06:35:40;;;;;;;11.20;7.97;;;22.10;1.00;;;;;;6318655;22;20434;-80
2022/08/01 06:38:07;;;;;;;12.00;7.50;;;22.00;1.00;;;;;;6323850;22;20813;-79
2022/08/01 06:40:44;;;;;;;12.30;7.30;;;22.10;1.00;;;;;;6319681;22;20422;-81
2022/08/01 06:43:12;;;;;;;10.17;6.23;;;22.10;1.00;;;;;;6319958;22;20830;-78
2022/08/01 06:45:39;;;;;;;9.30;6.20;;;22.00;1.00;;;;;;6317261;22;20543;-79
2022/08/01 06:48:10;;;;;;;10.10;7.00;;;21.90;1.00;;;;;;6296888;22;20417;-78
2022/08/01 06:50:39;;;;;;;12.07;7.53;;;22.00;1.00;;;;;;6317105;22;20433;-79
2022/08/01 06:53:20;;;;;;;9.50;6.27;;;22.00;1.00;;;;;;6315645;22;20393;-78
2022/08/01 06:55:50;;;;;;;10.23;6.67;;;22.10;1.00;;;;;;6316666;22;21337;-81
2022/08/01 06:58:21;;;;;;;10.60;6.40;;;22.20;1.00;;;;;;6317563;22;20415;-81
2022/08/01 07:00:47;;;;;;;9.70;5.70;;;22.30;1.00;;;;;;6313642;22;20497;-79
2022/08/01 07:03:16;;;;;;;9.87;4.80;;;22.50;1.00;;;;;;6314690;22;20495;-78
2022/08/01 07:05:43;;;;;;;9.43;5.10;;;22.50;1.00;;;;;;6317551;22;20434;-78
2022/08/01 07:08:09;;;;;;;7.90;3.80;;;22.60;1.00;;;;;;6318039;22;20414;-81
2022/08/01 07:10:41;;;;;;;7.80;4.17;;;22.70;1.00;;;;;;6318897;22;20387;-82
2022/08/01 07:13:07;;;;;;;7.83;4.10;;;22.70;1.00;;;;;;6319172;22;20442;-81
2022/08/01 07:15:36;;;;;;;7.60;3.70;;;22.70;1.00;;;;;;6317788;22;20509;-81
2022/08/01 07:18:03;;;;;;;7.80;3.80;;;22.70;1.00;;;;;;6316311;22;20431;-77
2022/08/01 07:20:30;;;;;;;7.10;3.67;;;22.70;1.00;;;;;;6315659;22;20407;-78
2022/08/01 07:22:57;;;;;;;8.43;4.40;;;22.60;1.00;;;;;;6316864;22;20509;-81
2022/08/01 07:25:29;;;;;;;10.07;3.97;;;22.50;1.00;;;;;;6320669;22;20891;-81
2022/08/01 07:27:56;;;;;;;9.07;4.30;;;22.50;1.00;;;;;;6324713;22;20414;-83
2022/08/01 07:30:23;;;;;;;11.03;4.03;;;22.40;1.00;;;;;;6322914;22;20422;-83
2022/08/01 07:32:52;;;;;;;8.10;4.60;;;22.40;1.00;;;;;;6322043;22;20397;-80
2022/08/01 07:35:21;;;;;;;8.20;4.47;;;22.50;1.00;;;;;;6316047;22;20430;-80
2022/08/01 07:37:50;;;;;;;8.10;4.33;;;22.60;1.00;;;;;;6322213;22;20434;-78
2022/08/01 07:40:21;;;;;;;7.10;3.40;;;22.80;1.00;;;;;;6318682;22;20430;-79
2022/08/01 07:42:51;;;;;;;7.70;4.10;;;22.90;1.00;;;;;;6318938;22;20398;-78
2022/08/01 07:45:17;;;;;;;8.93;3.90;;;23.10;1.00;;;;;;6315620;22;20478;-79
2022/08/01 07:48:02;;;;;;;7.80;4.00;;;23.10;1.00;;;;;;6282810;22;20418;-79
2022/08/01 07:50:33;;;;;;;7.97;4.07;;;23.10;1.00;;;;;;6274991;22;20446;-79
2022/08/01 07:53:00;;;;;;;8.10;4.20;;;23.00;1.00;;;;;;6315471;22;20410;-79
2022/08/01 07:55:27;;;;;;;8.43;4.50;;;23.00;1.00;;;;;;6317772;22;20438;-79
2022/08/01 07:57:58;;;;;;;8.27;4.57;;;22.90;1.00;;;;;;6316686;22;20418;-79
2022/08/01 08:00:31;;;;;;;8.60;4.70;;;22.60;1.00;;;;;;6313852;22;20453;-80
2022/08/01 08:02:59;;;;;;;9.30;4.67;;;22.40;1.00;;;;;;6317910;22;20428;-79
2022/08/01 08:05:35;;;;;;;7.57;4.23;;;22.50;1.00;;;;;;6308591;22;20403;-81
2022/08/01 08:08:02;;;;;;;8.23;4.50;;;22.80;1.00;;;;;;6320468;22;20441;-81
2022/08/01 08:10:31;;;;;;;7.53;4.27;;;23.10;1.00;;;;;;6318974;22;20386;-81
2022/08/01 08:13:00;;;;;;;7.87;3.80;;;23.30;1.00;;;;;;6319681;22;20438;-80
2022/08/01 08:15:30;;;;;;;11.00;4.63;;;23.40;1.00;;;;;;6318841;22;20870;-79
2022/08/01 08:17:58;;;;;;;9.77;5.13;;;23.30;1.00;;;;;;6318339;22;21013;-80
2022/08/01 08:20:30;;;;;;;9.47;5.10;;;23.10;1.00;;;;;;6315911;22;20434;-80
2022/08/01 08:22:58;;;;;;;11.67;6.20;;;22.90;1.00;;;;;;6319365;22;20450;-78
2022/08/01 08:25:30;;;;;;;9.47;5.23;;;22.80;1.00;;;;;;6317426;22;21402;-83
2022/08/01 08:27:57;;;;;;;9.10;5.10;;;22.60;1.00;;;;;;6320591;22;20914;-83
2022/08/01 08:30:30;;;;;;;10.40;6.40;;;22.50;1.00;;;;;;6317841;22;20419;-84
2022/08/01 08:33:40;;;;;;;9.13;5.23;;;22.30;1.00;;;;;;6285701;22;20898;-83
2022/08/01 08:36:12;;;;;;;9.33;5.63;;;22.20;1.00;;;;;;6289319;22;20995;-80
2022/08/01 08:38:39;;;;;;;8.60;5.30;;;22.10;1.00;;;;;;6317358;22;20544;-82
2022/08/01 08:41:13;;;;;;;9.00;5.57;;;22.20;1.00;;;;;;6317374;22;20418;-81
2022/08/01 08:43:41;;;;;;;9.17;5.10;;;22.30;1.00;;;;;;6317918;22;20381;-80
2022/08/01 08:46:15;;;;;;;9.37;4.77;;;22.40;1.00;;;;;;6320002;22;20390;-84
2022/08/01 08:48:43;;;;;;;7.77;4.60;;;22.50;1.00;;;;;;6320228;22;20456;-81
2022/08/01 08:51:12;;;;;;;8.90;4.60;;;22.60;1.00;;;;;;6320980;22;20449;-80
2022/08/01 08:53:43;;;;;;;8.67;4.53;;;22.60;1.00;;;;;;6318969;22;20910;-82
2022/08/01 08:56:15;;;;;;;7.90;4.40;;;22.70;1.00;;;;;;6320362;22;20401;-80
2022/08/01 08:58:43;;;;;;;8.70;4.43;;;23.00;1.00;;;;;;6320108;22;20902;-80
2022/08/01 09:01:17;;;;;;;7.40;3.47;;;23.30;1.00;;;;;;6318333;22;20446;-80
2022/08/01 09:03:50;;;;;;;7.60;3.77;;;23.70;1.00;;;;;;6318926;22;20480;-82
2022/08/01 09:06:17;;;;;;;9.80;4.00;;;23.70;1.00;;;;;;6317766;22;20497;-78
2022/08/01 09:08:45;;;;;;;8.37;3.77;;;23.50;1.00;;;;;;6323013;22;20449;-82
2022/08/01 09:11:14;;;;;;;7.67;3.30;;;23.30;1.00;;;;;;6319880;22;20424;-82
2022/08/01 09:13:41;;;;;;;8.70;3.60;;;23.30;1.00;;;;;;6316962;22;20442;-83
2022/08/01 09:16:18;;;;;;;8.10;2.97;;;23.20;1.00;;;;;;6320515;22;20409;-84
2022/08/01 09:18:50;;;;;;;7.57;2.80;;;23.30;1.00;;;;;;6304871;22;20412;-82
2022/08/01 09:21:19;;;;;;;7.87;2.47;;;23.50;1.00;;;;;;6314243;22;20428;-82
2022/08/01 09:23:52;;;;;;;6.40;2.60;;;24.00;1.00;;;;;;6321888;22;20386;-83
2022/08/01 09:26:21;;;;;;;7.73;2.53;;;24.40;1.00;;;;;;6319183;22;20516;-84
2022/08/01 09:28:51;;;;;;;6.43;1.90;;;24.60;1.00;;;;;;6321932;22;20390;-83
2022/08/01 09:31:19;;;;;;;5.77;1.93;;;24.70;1.00;;;;;;6321416;22;20492;-83
2022/08/01 09:33:55;;;;;;;7.77;2.50;;;24.60;1.00;;;;;;6324884;22;20394;-84
2022/08/01 09:36:28;;;;;;;6.33;2.17;;;24.50;1.00;;;;;;6322960;22;20799;-80
2022/08/01 09:39:12;;;;;;;5.73;2.10;;;24.40;1.00;;;;;;6318472;22;20766;-80
2022/08/01 09:41:39;;;;;;;6.10;1.90;;;24.10;1.00;;;;;;6324115;22;21002;-83
2022/08/01 09:44:12;;;;;;;5.90;2.07;;;24.00;1.00;;;;;;6323561;22;20378;-78
2022/08/01 09:46:52;;;;;;;5.80;2.27;;;23.90;1.00;;;;;;6318273;22;20831;-83
2022/08/01 09:49:33;;;;;;;5.90;2.30;;;24.00;1.00;;;;;;6286106;22;20449;-82
2022/08/01 09:52:12;;;;;;;5.80;2.00;;;24.10;1.00;;;;;;6320037;22;20428;-83
2022/08/01 09:54:42;;;;;;;6.17;2.47;;;24.20;1.00;;;;;;6320058;22;20374;-81
2022/08/01 09:57:14;;;;;;;6.90;2.37;;;24.20;1.00;;;;;;6319061;22;20402;-80
2022/08/01 09:59:43;;;;;;;5.90;2.40;;;24.00;1.00;;;;;;6320838;22;20386;-83
2022/08/01 10:02:13;;;;;;;5.90;2.20;;;23.80;1.00;;;;;;6319676;22;20508;-78
2022/08/01 10:04:53;;;;;;;6.67;2.97;;;23.60;1.00;;;;;;6319362;22;20413;-84
2022/08/01 10:07:21;;;;;;;6.50;2.57;;;23.40;1.00;;;;;;6319144;22;20434;-80
2022/08/01 10:09:51;;;;;;;6.00;2.20;;;23.30;1.00;;;;;;6321698;22;20405;-81
2022/08/01 10:12:23;;;;;;;6.20;2.57;;;23.20;1.00;;;;;;6316323;22;20418;-79
2022/08/01 10:14:55;;;;;;;8.23;2.80;;;23.20;1.00;;;;;;6315402;22;20383;-79
2022/08/01 10:17:30;;;;;;;6.87;2.90;;;23.20;1.00;;;;;;6316378;22;20850;-81
2022/08/01 10:20:00;;;;;;;7.50;3.30;;;23.20;1.00;;;;;;6316907;22;20489;-82
2022/08/01 10:22:33;;;;;;;7.33;3.40;;;23.40;1.00;;;;;;6317672;22;21169;-80
2022/08/01 10:25:03;;;;;;;7.63;3.30;;;23.50;1.00;;;;;;6314732;22;20540;-81
2022/08/01 10:27:35;;;;;;;8.60;3.07;;;23.40;1.00;;;;;;6315541;22;20394;-82
2022/08/01 10:30:10;;;;;;;7.77;2.80;;;23.50;1.00;;;;;;6319457;22;20418;-81
2022/08/01 10:32:38;;;;;;;6.40;2.60;;;23.50;1.00;;;;;;6316812;22;20440;-81
2022/08/01 10:35:16;;;;;;;7.70;2.80;;;23.60;1.00;;;;;;6317021;22;20418;-81
2022/08/01 10:37:46;;;;;;;6.80;2.80;;;23.60;1.00;;;;;;6314481;22;20988;-79
2022/08/01 10:40:15;;;;;;;8.00;3.13;;;23.50;1.00;;;;;;6317445;22;20464;-81
2022/08/01 10:42:50;;;;;;;8.83;3.03;;;23.50;1.00;;;;;;6318695;22;20418;-79
2022/08/01 10:45:18;;;;;;;6.47;2.70;;;23.40;1.00;;;;;;6305446;22;20468;-81
2022/08/01 10:47:54;;;;;;;7.33;2.67;;;23.30;1.00;;;;;;6320627;22;20438;-78
2022/08/01 10:50:33;;;;;;;7.87;3.23;;;23.40;1.00;;;;;;6319715;22;20406;-81
2022/08/01 10:53:14;;;;;;;7.90;2.60;;;23.50;1.00;;;;;;6320189;22;20390;-81
2022/08/01 10:56:04;;;;;;;6.43;2.67;;;23.60;1.00;;;;;;6318658;22;20434;-80
2022/08/01 10:58:36;;;;;;;6.63;3.10;;;23.70;1.00;;;;;;6306986;22;20428;-81
2022/08/01 11:01:21;;;;;;;8.00;3.20;;;23.80;1.00;;;;;;6319169;22;20401;-83
2022/08/01 11:03:59;;;;;;;7.40;3.00;;;23.90;1.00;;;;;;6319526;22;20386;-81
2022/08/01 11:06:41;;;;;;;7.20;2.37;;;24.10;1.00;;;;;;6319093;22;20944;-81
2022/08/01 11:09:24;;;;;;;5.50;1.90;;;24.10;1.00;;;;;;6299982;22;20463;-81
2022/08/01 11:12:03;;;;;;;7.23;2.17;;;24.10;1.00;;;;;;6318896;22;20397;-81
2022/08/01 11:14:33;;;;;;;9.20;2.37;;;24.20;1.00;;;;;;6306619;22;20386;-81
2022/08/01 11:17:31;;;;;;;5.63;1.93;;;24.10;1.00;;;;;;6319948;22;20373;-81
2022/08/01 11:20:10;;;;;;;5.90;2.30;;;24.20;1.00;;;;;;6317390;22;20890;-79
2022/08/01 11:23:32;;;;;;;7.10;2.60;;;24.30;1.00;;;;;;6308822;22;20393;-81
2022/08/01 11:26:13;;;;;;;5.73;1.97;;;24.50;1.00;;;;;;6317181;22;20390;-81
2022/08/01 11:29:10;;;;;;;6.90;1.77;;;24.60;1.00;;;;;;6319503;22;20405;-81
2022/08/01 11:31:44;;;;;;;8.27;2.77;;;24.50;1.00;;;;;;6300802;22;20394;-79
2022/08/01 11:34:11;;;;;;;5.90;2.10;;;24.30;1.00;;;;;;6318245;22;21005;-82
2022/08/01 11:36:45;;;;;;;5.80;2.00;;;24.10;1.00;;;;;;6306121;22;20510;-81
2022/08/01 11:39:20;;;;;;;6.30;2.03;;;24.00;1.00;;;;;;6317797;22;20426;-79
2022/08/01 11:41:52;;;;;;;5.77;1.90;;;23.70;1.00;;;;;;6317069;22;20421;-80
2022/08/01 11:44:25;;;;;;;7.13;2.57;;;23.40;1.00;;;;;;6309873;22;20410;-79
2022/08/01 11:47:04;;;;;;;8.73;3.00;;;23.30;1.00;;;;;;6311753;22;20441;-79
2022/08/01 11:49:45;;;;;;;6.57;2.33;;;23.10;1.00;;;;;;6309615;22;20435;-79
2022/08/01 11:52:14;;;;;;;6.00;2.20;;;23.00;1.00;;;;;;6311998;22;20422;-80
2022/08/01 11:54:44;;;;;;;6.87;2.00;;;22.90;1.00;;;;;;6313504;22;20929;-79
2022/08/01 11:57:15;;;;;;;6.60;2.07;;;23.10;1.00;;;;;;6311595;22;20504;-79
2022/08/01 11:59:47;;;;;;;6.43;1.70;;;23.20;1.00;;;;;;6312209;22;20426;-79
2022/08/01 12:02:25;;;;;;;6.73;2.27;;;23.30;1.00;;;;;;6297458;22;20434;-79
2022/08/01 12:04:55;;;;;;;7.80;2.10;;;23.40;1.00;;;;;;6312352;22;20921;-78
2022/08/01 12:07:23;;;;;;;8.90;2.80;;;23.60;1.00;;;;;;6307578;22;20498;-79
2022/08/01 12:09:59;;;;;;;6.17;2.17;;;23.90;1.00;;;;;;6311575;22;20437;-78
2022/08/01 12:12:31;;;;;;;7.20;2.27;;;24.20;1.00;;;;;;6311777;22;20504;-80
2022/08/01 12:15:00;;;;;;;6.77;2.00;;;24.40;1.00;;;;;;6313283;22;20592;-77
2022/08/01 12:17:39;;;;;;;6.57;2.07;;;24.50;1.00;;;;;;6312905;22;20398;-78
2022/08/01 12:20:16;;;;;;;7.00;2.00;;;24.70;1.00;;;;;;6300288;22;20443;-82
2022/08/01 12:22:44;;;;;;;7.70;2.10;;;24.90;1.00;;;;;;6314939;22;20428;-81
2022/08/01 12:25:13;;;;;;;5.63;1.93;;;25.50;1.00;;;;;;6295324;22;20423;-83
2022/08/01 12:27:43;;;;;;;6.00;1.90;;;26.20;1.00;;;;;;6318695;22;20418;-82
2022/08/01 12:30:18;;;;;;;5.73;1.70;;;26.80;1.00;;;;;;6316302;22;20387;-83
2022/08/01 12:32:50;;;;;;;6.07;1.90;;;27.30;1.00;;;;;;6316488;22;21136;-82
2022/08/01 12:35:34;;;;;;;6.30;2.00;;;27.50;1.00;;;;;;6313423;22;20417;-83
2022/08/01 12:38:05;;;;;;;9.27;5.87;;;27.10;1.00;;;;;;6302229;22;20418;-81
2022/08/01 12:40:37;;;;;;;7.73;2.60;;;26.80;1.00;;;;;;6296757;22;20434;-83
2022/08/01 12:43:11;;;;;;;7.40;2.20;;;26.20;1.00;;;;;;6314044;22;20484;-82
2022/08/01 12:45:42;;;;;;;5.67;1.97;;;25.50;1.00;;;;;;6319647;22;20497;-83
2022/08/01 12:48:17;;;;;;;7.70;2.70;;;25.10;1.00;;;;;;6320303;22;20406;-83
2022/08/01 12:50:46;;;;;;;6.20;2.33;;;25.10;1.00;;;;;;6313158;22;20449;-82
2022/08/01 12:53:15;;;;;;;10.03;2.80;;;25.40;1.00;;;;;;6319556;22;20420;-82
2022/08/01 12:55:51;;;;;;;6.23;2.20;;;26.10;1.00;;;;;;6318825;22;20489;-80
2022/08/01 12:58:21;;;;;;;8.47;2.77;;;26.90;1.00;;;;;;6319152;22;20457;-83
2022/08/01 13:01:04;;;;;;;6.30;2.80;;;27.30;1.00;;;;;;6320872;22;20454;-82
2022/08/01 13:03:32;;;;;;;6.43;2.10;;;27.70;1.00;;;;;;6323048;22;20412;-83
2022/08/01 13:05:59;;;;;;;7.03;2.00;;;27.90;1.00;;;;;;6320654;22;20899;-82
2022/08/01 13:08:33;;;;;;;7.20;2.60;;;28.00;1.00;;;;;;6321851;22;20418;-82
2022/08/01 13:11:04;;;;;;;6.57;2.40;;;28.00;1.00;;;;;;6322105;22;20505;-83
2022/08/01 13:13:46;;;;;;;5.73;2.17;;;28.10;1.00;;;;;;6310613;22;20477;-81
2022/08/01 13:16:15;;;;;;;7.30;2.40;;;28.20;1.00;;;;;;6281961;22;20386;-83
2022/08/01 13:18:51;;;;;;;7.43;2.50;;;28.30;1.00;;;;;;6323359;22;20772;-83
2022/08/01 13:21:21;;;;;;;9.57;3.67;;;28.00;1.00;;;;;;6324813;22;20952;-82
2022/08/01 13:24:02;;;;;;;6.40;2.33;;;27.60;1.00;;;;;;6321030;22;20509;-81
2022/08/01 13:26:40;;;;;;;6.63;3.03;;;27.20;1.00;;;;;;6323728;22;20409;-83
2022/08/01 13:29:11;;;;;;;9.00;2.90;;;26.80;1.00;;;;;;6319656;22;20456;-81
2022/08/01 13:31:39;;;;;;;6.00;2.47;;;26.40;1.00;;;;;;6319985;22;20422;-81
2022/08/01 13:34:11;;;;;;;7.40;2.50;;;26.10;1.00;;;;;;6314785;22;26056;-82